createdAt,value
2023-04-17T00:02:22.501Z,8.30
2023-04-17T00:07:28.402Z,8.31
2023-04-17T00:12:32.520Z,8.36
2023-04-17T00:17:35.467Z,8.35
2023-04-17T00:22:38.317Z,8.38
2023-04-17T00:27:42.895Z,8.39
2023-04-17T00:32:45.964Z,8.40
2023-04-17T00:37:49.302Z,8.38
2023-04-17T00:42:56.249Z,8.33
2023-04-17T00:48:02.268Z,8.33
2023-04-17T00:53:05.123Z,8.31
2023-04-17T00:58:10.097Z,8.22
2023-04-17T01:03:13.304Z,8.18
2023-04-17T01:08:16.612Z,8.24
2023-04-17T01:13:20.858Z,8.24
2023-04-17T01:18:23.752Z,8.19
2023-04-17T01:23:28.485Z,8.17
2023-04-17T01:28:32.579Z,8.15
2023-04-17T01:33:35.385Z,8.12
2023-04-17T01:38:38.585Z,8.04
2023-04-17T01:43:44.084Z,8.07
2023-04-17T01:48:47.650Z,8.07
2023-04-17T01:53:50.456Z,8.05
2023-04-17T01:58:54.631Z,8.06
2023-04-17T02:03:57.627Z,8.03
2023-04-17T02:09:00.650Z,8.00
2023-04-17T02:14:04.769Z,8.02
2023-04-17T02:19:07.553Z,8.06
2023-04-17T02:24:10.393Z,8.06
2023-04-17T02:29:14.670Z,8.01
2023-04-17T02:34:18.069Z,8.03
2023-04-17T02:39:21.478Z,8.02
2023-04-17T02:44:25.626Z,8.02
2023-04-17T02:49:28.493Z,8.00
2023-04-17T02:54:32.432Z,7.98
2023-04-17T02:59:36.975Z,7.98
2023-04-17T03:04:39.785Z,7.96
2023-04-17T03:09:42.723Z,7.88
2023-04-17T03:14:47.474Z,7.81
2023-04-17T03:19:50.257Z,7.76
2023-04-17T03:24:53.245Z,7.74
2023-04-17T03:29:59.182Z,7.67
2023-04-17T03:35:03.151Z,7.61
2023-04-17T03:40:08.824Z,7.65
2023-04-17T03:45:13.274Z,7.65
2023-04-17T03:50:16.468Z,7.62
2023-04-17T03:55:26.153Z,7.67
2023-04-17T04:00:32.602Z,7.70
2023-04-17T04:05:41.757Z,7.73
2023-04-17T04:10:47.091Z,7.67
2023-04-17T04:15:57.383Z,7.64
2023-04-17T04:21:03.458Z,7.64
2023-04-17T04:26:09.620Z,7.64
2023-04-17T04:31:18.715Z,7.65
2023-04-17T04:36:23.071Z,7.64
2023-04-17T04:41:34.928Z,7.66
2023-04-17T04:46:42.441Z,7.69
2023-04-17T04:51:45.418Z,7.72
2023-04-17T04:56:49.069Z,7.75
2023-04-17T05:01:53.864Z,7.81
2023-04-17T05:06:59.562Z,7.87
2023-04-17T05:12:05.633Z,7.93
2023-04-17T05:17:10.731Z,8.00
2023-04-17T05:22:14.666Z,8.10
2023-04-17T05:27:35.426Z,8.09
2023-04-17T05:32:40.795Z,8.26
2023-04-17T05:38:05.724Z,8.39
2023-04-17T05:43:10.469Z,8.47
2023-04-17T05:48:15.835Z,8.55
2023-04-17T05:53:19.684Z,8.61
2023-04-17T05:58:26.732Z,8.72
2023-04-17T06:03:34.005Z,8.85
2023-04-17T06:08:44.600Z,8.96
2023-04-17T06:13:47.522Z,9.10
2023-04-17T06:18:53.703Z,9.15
2023-04-17T06:23:56.607Z,9.22
2023-04-17T06:29:00.829Z,9.35
2023-04-17T06:34:09.255Z,9.47
2023-04-17T06:39:17.125Z,9.62
2023-04-17T06:44:22.372Z,9.82
2023-04-17T06:49:27.588Z,9.97
2023-04-17T06:54:30.394Z,10.07
2023-04-17T06:59:35.729Z,10.26
2023-04-17T07:04:40.442Z,10.55
2023-04-17T07:09:45.293Z,10.94
2023-04-17T07:14:48.143Z,11.17
2023-04-17T07:19:52.444Z,11.43
2023-04-17T07:24:55.345Z,11.63
2023-04-17T07:29:58.135Z,11.48
2023-04-17T07:35:02.999Z,11.30
2023-04-17T07:40:10.348Z,11.57
2023-04-17T07:45:13.525Z,12.06
2023-04-17T07:50:19.720Z,12.38
2023-04-17T07:55:22.752Z,11.95
2023-04-17T08:00:25.615Z,12.18
2023-04-17T08:05:30.133Z,11.81
2023-04-17T08:10:32.960Z,12.03
2023-04-17T08:15:40.688Z,11.78
2023-04-17T08:20:44.884Z,12.01
2023-04-17T08:25:49.921Z,12.28
2023-04-17T08:30:53.889Z,12.49
2023-04-17T08:35:59.083Z,12.50
2023-04-17T08:41:07.981Z,12.50
2023-04-17T08:46:11.398Z,12.35
2023-04-17T08:51:16.216Z,12.12
2023-04-17T08:56:18.957Z,12.40
2023-04-17T09:01:21.860Z,12.47
2023-04-17T09:06:29.200Z,12.91
2023-04-17T09:11:31.965Z,13.10
2023-04-17T09:16:36.215Z,12.84
2023-04-17T09:21:40.544Z,13.21
2023-04-17T09:26:43.360Z,13.11
2023-04-17T09:31:47.591Z,13.34
2023-04-17T09:36:55.909Z,13.32
2023-04-17T09:42:03.789Z,13.15
2023-04-17T09:47:08.773Z,13.28
2023-04-17T09:52:14.263Z,13.23
2023-04-17T09:57:19.110Z,13.82
2023-04-17T10:02:22.645Z,13.90
2023-04-17T10:07:27.918Z,14.61
2023-04-17T10:12:33.324Z,14.13
2023-04-17T10:17:38.190Z,13.76
2023-04-17T10:22:43.913Z,13.64
2023-04-17T10:27:49.953Z,13.88
2023-04-17T10:33:22.872Z,13.61
2023-04-17T10:38:37.448Z,13.68
2023-04-17T10:43:45.903Z,14.93
2023-04-17T10:48:52.057Z,15.12
2023-04-17T10:53:58.890Z,14.86
2023-04-17T10:59:03.283Z,14.11
2023-04-17T11:04:06.866Z,14.29
2023-04-17T11:09:12.127Z,13.85
2023-04-17T11:14:19.379Z,14.85
2023-04-17T11:19:23.537Z,16.47
2023-04-17T11:24:30.079Z,16.95
2023-04-17T11:29:33.679Z,16.76
2023-04-17T11:34:38.669Z,16.82
2023-04-17T11:39:45.014Z,16.64
2023-04-17T11:44:48.632Z,17.67
2023-04-17T11:49:52.599Z,17.35
2023-04-17T11:55:00.021Z,17.12
2023-04-17T12:00:14.436Z,16.90
2023-04-17T12:05:18.557Z,17.27
2023-04-17T12:10:24.815Z,18.44
2023-04-17T12:15:27.636Z,20.14
2023-04-17T12:20:32.266Z,17.73
2023-04-17T12:25:37.017Z,17.36
2023-04-17T12:30:39.874Z,17.50
2023-04-17T12:35:43.610Z,17.10
2023-04-17T12:40:47.723Z,16.97
2023-04-17T12:45:50.850Z,18.90
2023-04-17T12:50:54.463Z,19.15
2023-04-17T12:55:58.604Z,19.08
2023-04-17T13:01:03.531Z,20.63
2023-04-17T13:06:06.558Z,19.51
2023-04-17T13:11:13.056Z,18.16
2023-04-17T13:16:16.137Z,20.48
2023-04-17T13:21:19.138Z,21.75
2023-04-17T13:26:26.683Z,23.62
2023-04-17T13:31:31.728Z,23.83
2023-04-17T13:36:35.126Z,22.59
2023-04-17T13:41:39.399Z,21.66
2023-04-17T13:46:44.263Z,19.33
2023-04-17T13:51:47.189Z,19.15
2023-04-17T13:56:51.509Z,17.89
2023-04-17T14:01:55.220Z,17.75
2023-04-17T14:07:00.893Z,18.39
2023-04-17T14:12:08.105Z,19.51
2023-04-17T14:17:11.206Z,18.97
2023-04-17T14:22:15.360Z,17.58
2023-04-17T14:27:20.147Z,16.70
2023-04-17T14:32:23.873Z,16.42
2023-04-17T14:37:28.343Z,16.64
2023-04-17T14:42:38.253Z,18.21
2023-04-17T14:47:56.401Z,19.76
2023-04-17T14:53:02.986Z,20.95
2023-04-17T14:58:07.261Z,17.63
2023-04-17T15:03:10.145Z,16.60
2023-04-17T15:08:13.339Z,16.15
2023-04-17T15:13:17.433Z,15.46
2023-04-17T15:18:20.845Z,14.99
2023-04-17T15:23:25.413Z,14.84
2023-04-17T15:28:29.631Z,14.47
2023-04-17T15:33:32.448Z,14.33
2023-04-17T15:38:38.304Z,14.32
2023-04-17T15:43:42.576Z,13.99
2023-04-17T15:48:54.975Z,13.91
2023-04-17T15:54:08.276Z,13.78
2023-04-17T15:59:13.131Z,13.77
2023-04-17T16:04:19.378Z,13.69
2023-04-17T16:09:24.523Z,13.66
2023-04-17T16:14:29.414Z,13.68
2023-04-17T16:19:33.028Z,13.79
2023-04-17T16:24:35.955Z,13.80
2023-04-17T16:29:40.311Z,13.84
2023-04-17T16:34:43.974Z,13.69
2023-04-17T16:39:52.396Z,13.57
2023-04-17T16:45:00.181Z,13.63
2023-04-17T16:50:04.804Z,13.37
2023-04-17T16:55:10.132Z,13.44
2023-04-17T17:00:15.377Z,13.39
2023-04-17T17:05:18.143Z,13.34
2023-04-17T17:10:21.094Z,16.88
2023-04-17T17:15:25.680Z,20.37
2023-04-17T17:20:30.035Z,16.96
2023-04-17T17:25:33.312Z,15.83
2023-04-17T17:30:37.644Z,15.80
2023-04-17T17:35:40.500Z,15.15
2023-04-17T17:40:46.176Z,14.72
2023-04-17T17:45:51.980Z,14.18
2023-04-17T17:50:55.004Z,13.71
2023-04-17T17:55:58.311Z,13.37
2023-04-17T18:01:03.325Z,13.13
2023-04-17T18:06:06.331Z,13.04
2023-04-17T18:11:09.026Z,12.94
2023-04-17T18:16:13.185Z,12.76
2023-04-17T18:21:15.962Z,12.58
2023-04-17T18:26:19.415Z,12.48
2023-04-17T18:31:25.137Z,12.27
2023-04-17T18:36:28.929Z,12.10
2023-04-17T18:41:32.342Z,11.84
2023-04-17T18:46:37.614Z,11.67
2023-04-17T18:51:45.366Z,11.52
2023-04-17T18:56:48.250Z,11.37
2023-04-17T19:01:52.445Z,11.20
2023-04-17T19:06:55.293Z,11.07
2023-04-17T19:11:58.561Z,10.93
2023-04-17T19:17:03.349Z,10.83
2023-04-17T19:22:06.458Z,10.71
2023-04-17T19:27:09.188Z,10.61
2023-04-17T19:32:16.328Z,10.51
2023-04-17T19:37:20.090Z,10.39
2023-04-17T19:42:24.880Z,10.28
2023-04-17T19:47:31.047Z,10.20
2023-04-17T19:52:33.955Z,10.08
2023-04-17T19:57:37.164Z,9.96
2023-04-17T20:02:41.685Z,9.85
2023-04-17T20:07:44.495Z,9.73
2023-04-17T20:12:47.421Z,9.63
2023-04-17T20:17:52.116Z,9.55
2023-04-17T20:22:54.897Z,9.46
2023-04-17T20:27:58.201Z,9.35
2023-04-17T20:33:02.421Z,9.22
2023-04-17T20:38:06.235Z,9.05
2023-04-17T20:43:09.493Z,8.88
2023-04-17T20:48:13.686Z,8.67
2023-04-17T20:53:16.894Z,8.51
2023-04-17T20:58:20.095Z,8.29
2023-04-17T21:03:24.731Z,8.17
2023-04-17T21:08:27.861Z,8.10
2023-04-17T21:13:30.896Z,8.08
2023-04-17T21:18:35.372Z,7.99
2023-04-17T21:23:40.250Z,7.83
2023-04-17T21:28:43.654Z,7.71
2023-04-17T21:33:47.745Z,7.57
2023-04-17T21:38:50.477Z,7.40
2023-04-17T21:43:53.604Z,7.17
2023-04-17T21:48:57.954Z,7.11
2023-04-17T21:54:00.692Z,7.03
2023-04-17T21:59:03.553Z,6.90
2023-04-17T22:04:07.667Z,6.79
2023-04-17T22:09:10.500Z,6.74
2023-04-17T22:14:13.640Z,6.60
2023-04-17T22:19:17.804Z,6.49
2023-04-17T22:24:20.662Z,6.33
2023-04-17T22:29:23.428Z,6.28
2023-04-17T22:34:27.480Z,6.20
2023-04-17T22:39:30.488Z,6.06
2023-04-17T22:44:34.249Z,5.98
2023-04-17T22:49:38.743Z,5.80
2023-04-17T22:54:41.468Z,5.71
2023-04-17T22:59:44.232Z,5.56
2023-04-17T23:04:48.271Z,5.42
2023-04-17T23:09:51.025Z,5.15
2023-04-17T23:14:53.860Z,5.20
2023-04-17T23:19:57.908Z,5.05
2023-04-17T23:25:00.650Z,4.99
2023-04-17T23:30:03.664Z,4.90
2023-04-17T23:35:10.236Z,4.91
2023-04-17T23:40:13.664Z,4.89
2023-04-17T23:45:16.415Z,4.86
2023-04-17T23:50:20.704Z,4.78
2023-04-17T23:55:26.284Z,4.76
